This is the latest recevied weather packets stored in our database for station/object SQ5OUZ-8. If no packets are shown the sender has not sent any weather packets the latest 10 day(s).
| Time | Temp. | Humidity | Pressure | Rain* | Wind** | Luminosity | Snow |
|---|---|---|---|---|---|---|---|
| 1777401710 | 8.89° C | 38% | 1025 hPa | - | - | - | - |
| 1777400734 | 9.44° C | 37% | 1025 hPa | - | - | - | - |
| 1777399777 | 9.44° C | 36% | 1025 hPa | - | - | - | - |
| 1777398587 | 10° C | 35% | 1025 hPa | - | - | - | - |
| 1777397546 | 10.56° C | 33% | 1025 hPa | - | - | - | - |
| 1777396357 | 10.56° C | 33% | 1024 hPa | - | - | - | - |
| 1777395256 | 11.67° C | 30% | 1024 hPa | - | - | - | - |
| 1777394186 | 11.11° C | 31% | 1024 hPa | - | - | - | - |
| 1777393148 | 12.22° C | 29% | 1024 hPa | - | - | - | - |
| 1777391989 | 11.67° C | 29% | 1024 hPa | - | - | - | - |
| 1777391025 | 11.67° C | 28% | 1024 hPa | - | - | - | - |
| 1777389897 | 13.33° C | 26% | 1024 hPa | - | - | - | - |
| 1777388769 | 12.78° C | 25% | 1024 hPa | - | - | - | - |
| 1777387771 | 13.33° C | 23% | 1025 hPa | - | - | - | - |
| 1777386652 | 16.67° C | 20% | 1024 hPa | - | - | - | - |
| 1777385633 | 14.44° C | 23% | 1025 hPa | - | - | - | - |
| 1777384528 | 16.11° C | 21% | 1024 hPa | - | - | - | - |
| 1777383337 | 20° C | 17% | 1024 hPa | - | - | - | - |
| 1777382287 | 17.78° C | 19% | 1025 hPa | - | - | - | - |
| 1777381213 | 16.11° C | 20% | 1025 hPa | - | - | - | - |
| 1777380219 | 17.22° C | 19% | 1025 hPa | - | - | - | - |
| 1777379044 | 17.78° C | 18% | 1025 hPa | - | - | - | - |
| 1777378065 | 16.11° C | 20% | 1025 hPa | - | - | - | - |
| 1777377068 | 17.22° C | 20% | 1025 hPa | - | - | - | - |
| 1777376006 | 18.89° C | 19% | 1025 hPa | - | - | - | - |
* Rain since midnight (hover to see other rain measurements)
** Current wind speed in m/s (hover to see current wind gust speed)